EGMT weather

Thurrock Airfield
England, United Kingdom

Public forecast

Using degrees Celsius for public forecast. Weather courtesy of forecast.io.

Closest aviation weather report (METAR) to Thurrock Airfield

Closest report is London City Airport, 11.8 nm (21.9 km) W. Retrieved 2020/04/09 13:50 UTC (20 minutes ago):

EGLC 091350Z AUTO 08012KT 9999 NCD 20/08 Q1025

Closest aviation forecast (TAF) to Thurrock Airfield

Forecast is more than 12 hours old.

Closest forecast is London City Airport, 11.8 nm (21.9 km) W. Retrieved 2018/10/15 21:30 UTC (1 year ago):

TAF EGLC 152119Z 1521/1621 CNL